Terminal Aerodrome Forecast
Issued by NWS Atlanta, GA

Home | Current Version | Previous Version | Text Only | Print | Product List | Glossary On
Versions: 1 2 3 4 5 6 7 8 9 10 11 12 13 14
000
FTUS42 KFFC 251141
TAFCSG
TAF
KCSG 251141Z 2512/2612 00000KT P6SM FEW120
     FM251500 25003KT P6SM SCT035
     FM251800 26006KT P6SM VCSH SCT050
      TEMPO 2518/2522 4SM -TSRA BR BKN035CB
     FM260100 25003KT P6SM SCT100=

USA.gov is the U.S. government's official web portal to all federal, state and local government web resources and services.